createdAt,value
2022-08-14T00:02:03.193Z,100538.31
2022-08-14T00:04:42.308Z,100546.31
2022-08-14T00:07:13.978Z,100535.88
2022-08-14T00:09:55.667Z,100531.91
2022-08-14T00:12:33.987Z,100533.94
2022-08-14T00:15:19.681Z,100535.53
2022-08-14T00:17:53.033Z,100534.34
2022-08-14T00:20:30.459Z,100528.75
2022-08-14T00:23:12.665Z,100530.78
2022-08-14T00:25:59.226Z,100526.78
2022-08-14T00:28:35.214Z,100530.38
2022-08-14T00:31:04.586Z,100522.38
2022-08-14T00:33:50.981Z,100527.59
2022-08-14T00:36:35.325Z,100524.00
2022-08-14T00:39:06.478Z,100535.25
2022-08-14T00:41:35.958Z,100526.81
2022-08-14T00:44:05.735Z,100523.63
2022-08-14T00:46:33.525Z,100515.56
2022-08-14T00:49:00.925Z,100522.00
2022-08-14T00:51:37.678Z,100523.63
2022-08-14T00:54:16.798Z,100520.81
2022-08-14T00:56:50.466Z,100523.25
2022-08-14T00:59:17.405Z,100522.47
2022-08-14T01:01:46.051Z,100513.66
2022-08-14T01:04:51.930Z,100514.84
2022-08-14T01:07:00.882Z,100520.09
2022-08-14T01:09:31.980Z,100513.28
2022-08-14T01:12:02.722Z,100510.47
2022-08-14T01:14:30.372Z,100504.84
2022-08-14T01:16:57.474Z,100503.63
2022-08-14T01:19:43.836Z,100493.63
2022-08-14T01:22:13.396Z,100497.66
2022-08-14T01:24:45.616Z,100494.88
2022-08-14T01:27:22.409Z,100488.09
2022-08-14T01:30:03.767Z,100486.88
2022-08-14T01:32:37.390Z,100487.28
2022-08-14T01:35:18.701Z,100482.84
2022-08-14T01:37:57.057Z,100478.50
2022-08-14T01:40:36.634Z,100474.50
2022-08-14T01:43:14.718Z,100467.34
2022-08-14T01:45:42.404Z,100462.56
2022-08-14T01:48:13.877Z,100460.13
2022-08-14T01:50:41.966Z,100460.19
2022-08-14T01:53:09.628Z,100463.41
2022-08-14T01:55:40.423Z,100465.44
2022-08-14T01:58:19.781Z,100461.03
2022-08-14T02:00:56.530Z,100457.81
2022-08-14T02:03:29.721Z,100457.81
2022-08-14T02:06:03.875Z,100452.19
2022-08-14T02:08:53.439Z,100435.38
2022-08-14T02:11:23.225Z,100445.03
2022-08-14T02:13:54.665Z,100441.44
2022-08-14T02:16:26.917Z,100435.44
2022-08-14T02:18:57.405Z,100440.22
2022-08-14T02:21:26.997Z,100430.63
2022-08-14T02:23:57.043Z,100426.63
2022-08-14T02:26:30.744Z,100418.22
2022-08-14T02:29:03.567Z,100419.41
2022-08-14T02:31:41.920Z,100415.84
2022-08-14T02:34:36.256Z,100420.66
2022-08-14T02:37:06.937Z,100419.47
2022-08-14T02:39:40.490Z,100421.47
2022-08-14T02:42:13.084Z,100426.25
2022-08-14T02:44:49.354Z,100413.47
2022-08-14T02:47:19.092Z,100421.88
2022-08-14T02:49:50.501Z,100422.72
2022-08-14T02:52:56.220Z,100411.13
2022-08-14T02:55:09.357Z,100421.16
2022-08-14T02:57:39.922Z,100419.56
2022-08-14T03:00:09.952Z,100420.38
2022-08-14T03:02:56.114Z,100405.97
2022-08-14T03:05:24.111Z,100404.78
2022-08-14T03:07:52.825Z,100403.59
2022-08-14T03:10:25.692Z,100400.38
2022-08-14T03:12:53.969Z,100395.19
2022-08-14T03:15:20.915Z,100390.78
2022-08-14T03:17:57.753Z,100396.38
2022-08-14T03:20:30.333Z,100395.56
2022-08-14T03:23:00.272Z,100389.16
2022-08-14T03:25:33.466Z,100387.97
2022-08-14T03:28:07.145Z,100389.16
2022-08-14T03:30:39.835Z,100383.56
2022-08-14T03:33:10.364Z,100379.97
2022-08-14T03:35:59.585Z,100375.56
2022-08-14T03:39:15.029Z,100376.75
2022-08-14T03:41:16.589Z,100373.56
2022-08-14T03:43:57.838Z,100371.97
2022-08-14T03:46:53.109Z,100362.78
2022-08-14T03:49:24.434Z,100351.56
2022-08-14T03:51:55.850Z,100347.53
2022-08-14T03:54:26.140Z,100340.75
2022-08-14T03:56:54.655Z,100353.56
2022-08-14T03:59:21.702Z,100338.75
2022-08-14T04:01:57.746Z,100339.53
2022-08-14T04:04:31.519Z,100340.34
2022-08-14T04:07:00.140Z,100334.34
2022-08-14T04:09:28.302Z,100329.94
2022-08-14T04:11:58.222Z,100325.13
2022-08-14T04:14:26.483Z,100331.53
2022-08-14T04:16:53.267Z,100329.94
2022-08-14T04:19:24.056Z,100322.72
2022-08-14T04:22:03.752Z,100328.31
2022-08-14T04:24:38.234Z,100315.53
2022-08-14T04:27:09.962Z,100313.91
2022-08-14T04:29:42.504Z,100313.53
2022-08-14T04:32:57.282Z,100309.13
2022-08-14T04:34:58.058Z,100308.38
2022-08-14T04:37:45.524Z,100295.16
2022-08-14T04:40:32.645Z,100303.56
2022-08-14T04:43:20.905Z,100304.38
2022-08-14T04:45:51.495Z,100293.97
2022-08-14T04:48:39.480Z,100298.78
2022-08-14T04:51:12.889Z,100298.41
2022-08-14T04:53:43.991Z,100292.78
2022-08-14T04:56:30.143Z,100302.38
2022-08-14T04:59:09.369Z,100292.78
2022-08-14T05:01:40.319Z,100295.59
2022-08-14T05:04:08.776Z,100295.59
2022-08-14T05:06:42.865Z,100302.00
2022-08-14T05:09:13.917Z,100296.03
2022-08-14T05:11:41.157Z,100288.81
2022-08-14T05:14:17.326Z,100291.59
2022-08-14T05:16:56.290Z,100291.59
2022-08-14T05:19:29.588Z,100289.59
2022-08-14T05:22:17.724Z,100284.41
2022-08-14T05:24:51.530Z,100286.00
2022-08-14T05:27:22.410Z,100280.03
2022-08-14T05:29:52.081Z,100280.78
2022-08-14T05:32:18.743Z,100286.81
2022-08-14T05:34:47.220Z,100292.41
2022-08-14T05:37:15.396Z,100290.00
2022-08-14T05:39:43.399Z,100292.78
2022-08-14T05:42:21.663Z,100292.41
2022-08-14T05:44:54.155Z,100296.41
2022-08-14T05:47:22.219Z,100296.75
2022-08-14T05:49:48.937Z,100302.75
2022-08-14T05:52:18.084Z,100296.34
2022-08-14T05:54:44.993Z,100288.31
2022-08-14T05:57:11.746Z,100292.31
2022-08-14T05:59:40.037Z,100288.69
2022-08-14T06:02:11.395Z,100288.69
2022-08-14T06:04:48.187Z,100287.44
2022-08-14T06:07:16.518Z,100289.38
2022-08-14T06:09:43.369Z,100290.53
2022-08-14T06:12:31.324Z,100283.66
2022-08-14T06:15:08.119Z,100292.03
2022-08-14T06:17:58.536Z,100283.94
2022-08-14T06:20:25.961Z,100288.28
2022-08-14T06:22:52.592Z,100290.25
2022-08-14T06:25:19.500Z,100289.38
2022-08-14T06:27:48.597Z,100292.53
2022-08-14T06:30:19.426Z,100278.47
2022-08-14T06:32:47.707Z,100282.03
2022-08-14T06:35:20.617Z,100277.16
2022-08-14T06:38:00.994Z,100276.31
2022-08-14T06:40:34.781Z,100280.66
2022-08-14T06:43:08.191Z,100282.63
2022-08-14T06:45:37.183Z,100277.75
2022-08-14T06:48:14.623Z,100280.47
2022-08-14T06:50:46.202Z,100284.44
2022-08-14T06:53:14.717Z,100283.13
2022-08-14T06:55:57.810Z,100281.84
2022-08-14T06:58:29.114Z,100274.16
2022-08-14T07:01:17.604Z,100276.13
2022-08-14T07:04:05.817Z,100279.31
2022-08-14T07:06:45.597Z,100274.88
2022-08-14T07:09:18.152Z,100272.00
2022-08-14T07:11:49.680Z,100274.75
2022-08-14T07:14:16.360Z,100269.00
2022-08-14T07:16:43.141Z,100268.56
2022-08-14T07:19:10.022Z,100256.84
2022-08-14T07:21:38.146Z,100270.41
2022-08-14T07:24:04.947Z,100263.09
2022-08-14T07:26:36.385Z,100261.38
2022-08-14T07:29:05.765Z,100258.47
2022-08-14T07:31:33.716Z,100258.78
2022-08-14T07:34:00.466Z,100262.69
2022-08-14T07:36:31.258Z,100265.84
2022-08-14T07:39:11.962Z,100255.34
2022-08-14T07:41:40.027Z,100268.13
2022-08-14T07:44:29.743Z,100258.34
2022-08-14T07:46:58.311Z,100256.16
2022-08-14T07:49:25.749Z,100262.50
2022-08-14T07:51:52.489Z,100249.13
2022-08-14T07:54:23.604Z,100260.69
2022-08-14T07:56:57.932Z,100255.81
2022-08-14T07:59:41.992Z,100252.06
2022-08-14T08:02:19.011Z,100256.81
2022-08-14T08:04:54.016Z,100259.94
2022-08-14T08:07:23.082Z,100252.59
2022-08-14T08:09:54.430Z,100249.28
2022-08-14T08:12:26.157Z,100252.69
2022-08-14T08:15:02.900Z,100243.88
2022-08-14T08:17:38.762Z,100249.56
2022-08-14T08:20:11.628Z,100246.72
2022-08-14T08:22:40.931Z,100243.75
2022-08-14T08:25:13.904Z,100239.28
2022-08-14T08:27:44.605Z,100241.38
2022-08-14T08:30:12.541Z,100235.81
2022-08-14T08:32:41.368Z,100243.31
2022-08-14T08:35:23.667Z,100230.13
2022-08-14T08:38:01.173Z,100237.41
2022-08-14T08:40:42.258Z,100240.34
2022-08-14T08:43:22.476Z,100241.19
2022-08-14T08:45:57.249Z,100232.44
2022-08-14T08:48:37.078Z,100234.44
2022-08-14T08:51:07.223Z,100245.44
2022-08-14T08:53:35.858Z,100236.19
2022-08-14T08:56:04.158Z,100237.44
2022-08-14T08:58:32.548Z,100239.97
2022-08-14T09:01:01.711Z,100232.66
2022-08-14T09:03:30.501Z,100231.69
2022-08-14T09:06:03.791Z,100240.09
2022-08-14T09:08:33.497Z,100237.78
2022-08-14T09:11:20.990Z,100231.91
2022-08-14T09:13:52.980Z,100236.53
2022-08-14T09:16:24.849Z,100237.31
2022-08-14T09:18:53.514Z,100237.44
2022-08-14T09:21:24.243Z,100234.44
2022-08-14T09:24:28.975Z,100233.00
2022-08-14T09:26:48.869Z,100241.47
2022-08-14T09:29:16.573Z,100238.66
2022-08-14T09:31:52.754Z,100226.75
2022-08-14T09:34:35.603Z,100223.72
2022-08-14T09:37:33.232Z,100223.50
2022-08-14T09:40:20.787Z,100230.19
2022-08-14T09:43:02.771Z,100231.22
2022-08-14T09:45:52.958Z,100228.66
2022-08-14T09:48:27.662Z,100233.09
2022-08-14T09:50:58.246Z,100225.06
2022-08-14T09:54:12.568Z,100232.13
2022-08-14T09:56:32.971Z,100232.75
2022-08-14T09:59:15.313Z,100227.69
2022-08-14T10:01:43.853Z,100220.13
2022-08-14T10:04:33.961Z,100232.34
2022-08-14T10:07:03.382Z,100229.50
2022-08-14T10:09:33.562Z,100221.44
2022-08-14T10:12:04.811Z,100210.94
2022-08-14T10:14:35.637Z,100216.22
2022-08-14T10:17:06.452Z,100218.16
2022-08-14T10:19:35.741Z,100212.97
2022-08-14T10:23:11.908Z,100207.91
2022-08-14T10:24:54.813Z,100202.09
2022-08-14T10:27:26.560Z,100207.63
2022-08-14T10:30:00.123Z,100198.41
2022-08-14T10:32:40.350Z,100195.31
2022-08-14T10:35:14.135Z,100186.97
2022-08-14T10:37:50.100Z,100186.47
2022-08-14T10:40:44.230Z,100178.97
2022-08-14T10:43:32.583Z,100174.34
2022-08-14T10:46:21.947Z,100168.34
2022-08-14T10:49:03.992Z,100164.41
2022-08-14T10:51:34.263Z,100160.81
2022-08-14T10:54:35.091Z,100151.81
2022-08-14T10:57:18.847Z,100152.09
2022-08-14T10:59:47.976Z,100145.34
2022-08-14T11:02:22.314Z,100144.72
2022-08-14T11:05:13.507Z,100134.88
2022-08-14T11:07:55.334Z,100123.25
2022-08-14T11:10:27.903Z,100116.78
2022-08-14T11:12:57.148Z,100120.28
2022-08-14T11:15:27.406Z,100110.16
2022-08-14T11:17:56.463Z,100106.41
2022-08-14T11:20:30.163Z,100098.81
2022-08-14T11:23:00.854Z,100087.94
2022-08-14T11:25:36.907Z,100081.31
2022-08-14T11:28:14.754Z,100069.78
2022-08-14T11:30:53.851Z,100076.44
2022-08-14T11:33:29.519Z,100075.81
2022-08-14T11:36:02.012Z,100078.22
2022-08-14T11:38:37.873Z,100079.47
2022-08-14T11:41:06.176Z,100077.13
2022-08-14T11:43:55.896Z,100074.28
2022-08-14T11:46:29.906Z,100065.91
2022-08-14T11:49:05.227Z,100065.91
2022-08-14T11:51:42.912Z,100067.50
2022-08-14T11:54:34.496Z,100062.09
2022-08-14T11:57:04.480Z,100068.09
2022-08-14T11:59:33.864Z,100060.97
2022-08-14T12:03:03.400Z,100054.19
2022-08-14T12:05:09.185Z,100052.31
2022-08-14T12:07:49.212Z,100053.56
2022-08-14T12:10:27.166Z,100058.59
2022-08-14T12:13:22.427Z,100063.22
2022-08-14T12:15:58.849Z,100066.88
2022-08-14T12:18:33.055Z,100058.97
2022-08-14T12:21:22.756Z,100056.16
2022-08-14T12:24:08.382Z,100058.06
2022-08-14T12:26:40.704Z,100055.56
2022-08-14T12:29:16.924Z,100048.91
2022-08-14T12:31:47.367Z,100044.16
2022-08-14T12:34:20.666Z,100044.78
2022-08-14T12:36:49.739Z,100041.31
2022-08-14T12:39:23.935Z,100048.78
2022-08-14T12:42:01.494Z,100048.13
2022-08-14T12:44:39.117Z,100046.81
2022-08-14T12:47:14.987Z,100042.41
2022-08-14T12:49:52.994Z,100045.56
2022-08-14T12:52:45.268Z,100037.06
2022-08-14T12:55:22.998Z,100040.06
2022-08-14T12:58:02.450Z,100033.75
2022-08-14T13:01:16.445Z,100028.41
2022-08-14T13:03:41.335Z,100032.78
2022-08-14T13:06:10.681Z,100037.69
2022-08-14T13:08:37.928Z,100042.91
2022-08-14T13:11:14.970Z,100029.00
2022-08-14T13:13:44.829Z,100026.75
2022-08-14T13:16:20.915Z,100026.94
2022-08-14T13:19:01.835Z,100033.72
2022-08-14T13:21:58.700Z,100034.78
2022-08-14T13:24:20.440Z,100036.59
2022-08-14T13:26:51.403Z,100042.25
2022-08-14T13:29:22.069Z,100037.81
2022-08-14T13:31:53.668Z,100038.31
2022-08-14T13:34:24.304Z,100039.84
2022-08-14T13:36:59.297Z,100038.31
2022-08-14T13:39:36.702Z,100036.50
2022-08-14T13:42:13.184Z,100055.53
2022-08-14T13:44:42.880Z,100062.75
2022-08-14T13:47:11.136Z,100051.97
2022-08-14T13:49:40.373Z,100053.34
2022-08-14T13:52:52.432Z,100050.31
2022-08-14T13:55:15.633Z,100049.97
2022-08-14T13:57:49.498Z,100048.09
2022-08-14T14:00:21.625Z,100036.72
2022-08-14T14:03:00.320Z,100039.59
2022-08-14T14:05:53.095Z,100032.63
2022-08-14T14:08:19.086Z,100030.06
2022-08-14T14:11:03.724Z,100037.28
2022-08-14T14:13:31.943Z,100036.50
2022-08-14T14:16:03.832Z,100037.97
2022-08-14T14:18:34.978Z,100032.13
2022-08-14T14:21:02.819Z,100041.78
2022-08-14T14:23:31.148Z,100035.09
2022-08-14T14:25:59.797Z,100030.94
2022-08-14T14:28:31.749Z,100034.88
2022-08-14T14:31:06.154Z,100027.78
2022-08-14T14:33:47.443Z,100019.22
2022-08-14T14:36:21.395Z,100021.50
2022-08-14T14:38:56.901Z,100015.47
2022-08-14T14:41:26.521Z,100017.44
2022-08-14T14:44:06.688Z,100004.22
2022-08-14T14:46:38.436Z,100005.16
2022-08-14T14:49:14.694Z,100008.84
2022-08-14T14:51:46.871Z,100007.66
2022-08-14T14:54:31.143Z,100008.44
2022-08-14T14:57:00.237Z,100007.78
2022-08-14T14:59:30.725Z,100002.25
2022-08-14T15:02:09.135Z,100000.53
2022-08-14T15:04:43.749Z,100000.28
2022-08-14T15:07:12.375Z,100010.56
2022-08-14T15:09:39.907Z,99997.81
2022-08-14T15:12:34.776Z,100006.91
2022-08-14T15:14:58.170Z,100013.50
2022-08-14T15:17:41.009Z,100004.34
2022-08-14T15:20:17.598Z,99995.47
2022-08-14T15:22:57.595Z,100000.94
2022-08-14T15:25:24.394Z,99993.81
2022-08-14T15:27:54.521Z,99987.81
2022-08-14T15:30:23.749Z,99986.81
2022-08-14T15:32:51.732Z,99988.41
2022-08-14T15:35:22.358Z,99990.56
2022-08-14T15:37:55.894Z,99986.44
2022-08-14T15:40:23.586Z,99989.22
2022-08-14T15:42:50.355Z,99979.41
2022-08-14T15:45:17.362Z,99987.72
2022-08-14T15:47:44.401Z,99992.00
2022-08-14T15:50:13.150Z,99980.94
2022-08-14T15:52:42.978Z,99984.00
2022-08-14T15:55:15.371Z,99977.00
2022-08-14T15:57:51.287Z,99969.75
2022-08-14T16:00:49.337Z,99966.59
2022-08-14T16:03:18.143Z,99973.66
2022-08-14T16:05:53.847Z,99967.53
2022-08-14T16:08:28.927Z,99968.44
2022-08-14T16:11:01.357Z,99959.91
2022-08-14T16:13:41.647Z,99959.78
2022-08-14T16:16:34.861Z,99964.09
2022-08-14T16:19:19.848Z,99967.41
2022-08-14T16:22:02.079Z,99963.97
2022-08-14T16:24:59.860Z,99959.34
2022-08-14T16:27:33.618Z,99957.13
2022-08-14T16:30:11.039Z,99955.28
2022-08-14T16:32:54.827Z,99946.19
2022-08-14T16:35:26.443Z,99943.94
2022-08-14T16:38:19.294Z,99943.16
2022-08-14T16:41:17.057Z,99941.03
2022-08-14T16:43:45.852Z,99940.41
2022-08-14T16:46:16.046Z,99946.34
2022-08-14T16:48:57.349Z,99939.97
2022-08-14T16:51:28.137Z,99930.03
2022-08-14T16:53:58.822Z,99930.50
2022-08-14T16:56:30.820Z,99925.38
2022-08-14T16:59:12.302Z,99923.00
2022-08-14T17:01:44.963Z,99925.94
2022-08-14T17:04:24.922Z,99925.38
2022-08-14T17:06:55.090Z,99926.66
2022-08-14T17:09:24.669Z,99922.00
2022-08-14T17:12:29.084Z,99921.69
2022-08-14T17:15:15.142Z,99919.16
2022-08-14T17:17:49.889Z,99913.78
2022-08-14T17:20:39.439Z,99906.22
2022-08-14T17:23:11.472Z,99919.06
2022-08-14T17:25:39.070Z,99921.81
2022-08-14T17:28:49.910Z,99919.91
2022-08-14T17:31:03.964Z,99909.31
2022-08-14T17:33:44.139Z,99910.69
2022-08-14T17:36:20.737Z,99904.69
2022-08-14T17:39:06.246Z,99909.84
2022-08-14T17:42:01.946Z,99902.84
2022-08-14T17:44:45.545Z,99890.34
2022-08-14T17:47:18.568Z,99898.66
2022-08-14T17:49:51.940Z,99894.03
2022-08-14T17:52:34.165Z,99892.91
2022-08-14T17:55:05.958Z,99891.25
2022-08-14T17:57:35.487Z,99886.28
2022-08-14T18:00:12.458Z,99886.41
2022-08-14T18:02:41.186Z,99894.53
2022-08-14T18:05:23.622Z,99893.16
2022-08-14T18:08:34.179Z,99885.63
2022-08-14T18:10:56.053Z,99889.84
2022-08-14T18:13:49.998Z,99887.97
2022-08-14T18:16:20.720Z,99894.31
2022-08-14T18:18:51.130Z,99886.50
2022-08-14T18:21:24.306Z,99876.69
2022-08-14T18:24:28.539Z,99881.78
2022-08-14T18:27:01.485Z,99876.34
2022-08-14T18:29:31.760Z,99876.56
2022-08-14T18:31:58.961Z,99872.72
2022-08-14T18:34:37.974Z,99873.28
2022-08-14T18:37:21.169Z,99871.38
2022-08-14T18:40:03.336Z,99884.69
2022-08-14T18:42:34.930Z,99884.78
2022-08-14T18:45:02.011Z,99878.47
2022-08-14T18:48:06.436Z,99880.19
2022-08-14T18:50:30.897Z,99871.81
2022-08-14T18:53:07.783Z,99887.94
2022-08-14T18:55:35.971Z,99880.41
2022-08-14T18:58:18.832Z,99880.16
2022-08-14T19:00:56.177Z,99876.66
2022-08-14T19:03:36.719Z,99873.50
2022-08-14T19:06:09.035Z,99872.47
2022-08-14T19:08:39.732Z,99871.00
2022-08-14T19:11:39.717Z,99870.19
2022-08-14T19:14:08.043Z,99882.09
2022-08-14T19:16:43.040Z,99885.94
2022-08-14T19:19:15.392Z,99882.97
2022-08-14T19:21:56.126Z,99872.47
2022-08-14T19:24:44.078Z,99870.13
2022-08-14T19:27:26.215Z,99871.69
2022-08-14T19:30:20.431Z,99862.53
2022-08-14T19:32:55.739Z,99864.66
2022-08-14T19:35:49.083Z,99855.53
2022-08-14T19:38:53.563Z,99852.00
2022-08-14T19:41:36.112Z,99854.59
2022-08-14T19:44:12.520Z,99859.06
2022-08-14T19:47:02.709Z,99851.06
2022-08-14T19:50:08.753Z,99849.13
2022-08-14T19:52:29.750Z,99853.56
2022-08-14T19:54:59.494Z,99859.63
2022-08-14T19:57:31.411Z,99861.22
2022-08-14T20:00:28.228Z,99859.63
2022-08-14T20:03:09.970Z,99864.59
2022-08-14T20:05:45.921Z,99860.53
2022-08-14T20:09:05.947Z,99853.31
2022-08-14T20:11:19.092Z,99853.84
2022-08-14T20:14:00.289Z,99865.94
2022-08-14T20:16:40.941Z,99878.22
2022-08-14T20:19:29.005Z,99880.50
2022-08-14T20:22:34.801Z,99885.00
2022-08-14T20:24:50.028Z,99865.38
2022-08-14T20:27:33.651Z,99856.66
2022-08-14T20:30:34.257Z,99860.72
2022-08-14T20:33:11.052Z,99867.59
2022-08-14T20:35:51.698Z,99875.94
2022-08-14T20:38:29.308Z,99873.59
2022-08-14T20:40:59.064Z,99870.75
2022-08-14T20:43:52.803Z,99859.50
2022-08-14T20:46:38.751Z,99864.63
2022-08-14T20:49:16.864Z,99863.47
2022-08-14T20:51:59.171Z,99865.16
2022-08-14T20:54:33.864Z,99858.03
2022-08-14T20:57:15.751Z,99855.63
2022-08-14T20:59:53.321Z,99846.03
2022-08-14T21:02:38.324Z,99853.00
2022-08-14T21:05:16.498Z,99865.69
2022-08-14T21:07:50.894Z,99868.22
2022-08-14T21:10:33.460Z,99856.50
2022-08-14T21:13:25.754Z,99854.34
2022-08-14T21:15:57.523Z,99845.63
2022-08-14T21:18:47.688Z,99834.91
2022-08-14T21:21:20.396Z,99842.63
2022-08-14T21:23:55.011Z,99843.34
2022-08-14T21:26:51.268Z,99850.47
2022-08-14T21:29:15.956Z,99856.00
2022-08-14T21:31:55.253Z,99848.78
2022-08-14T21:34:31.317Z,99840.34
2022-08-14T21:37:09.784Z,99846.50
2022-08-14T21:39:38.357Z,99834.97
2022-08-14T21:42:06.274Z,99839.81
2022-08-14T21:44:43.260Z,99876.34
2022-08-14T21:47:12.743Z,99882.78
2022-08-14T21:49:40.268Z,99878.72
2022-08-14T21:52:49.559Z,99861.81
2022-08-14T21:55:09.383Z,99855.03
2022-08-14T21:58:43.559Z,99865.16
2022-08-14T22:00:34.613Z,99863.22
2022-08-14T22:03:08.879Z,99877.16
2022-08-14T22:05:38.720Z,99873.09
2022-08-14T22:08:07.627Z,99885.22
2022-08-14T22:10:42.583Z,99907.00
2022-08-14T22:13:11.874Z,99906.63
2022-08-14T22:15:43.941Z,99891.84
2022-08-14T22:18:19.855Z,99900.03
2022-08-14T22:20:46.899Z,99900.91
2022-08-14T22:23:13.759Z,99896.16
2022-08-14T22:25:43.839Z,99896.16
2022-08-14T22:28:20.537Z,99901.34
2022-08-14T22:30:48.248Z,99894.47
2022-08-14T22:33:31.082Z,99896.88
2022-08-14T22:35:59.541Z,99892.47
2022-08-14T22:38:35.310Z,99888.94
2022-08-14T22:41:26.829Z,99886.63
2022-08-14T22:43:53.360Z,99889.28
2022-08-14T22:46:21.678Z,99896.59
2022-08-14T22:48:49.525Z,99887.00
2022-08-14T22:51:21.615Z,99895.09
2022-08-14T22:53:52.280Z,99896.66
2022-08-14T22:56:21.896Z,99905.09
2022-08-14T22:58:54.022Z,99896.31
2022-08-14T23:01:55.784Z,99892.69
2022-08-14T23:04:35.801Z,99894.28
2022-08-14T23:07:21.805Z,99891.47
2022-08-14T23:10:32.762Z,99887.88
2022-08-14T23:12:54.589Z,99884.97
2022-08-14T23:15:24.674Z,99887.78
2022-08-14T23:17:56.843Z,99883.91
2022-08-14T23:20:23.572Z,99893.56
2022-08-14T23:22:56.788Z,99889.59
2022-08-14T23:25:57.366Z,99880.00
2022-08-14T23:28:34.788Z,99881.69
2022-08-14T23:31:05.520Z,99883.38
2022-08-14T23:33:33.821Z,99884.28
2022-08-14T23:36:03.323Z,99880.03
2022-08-14T23:38:31.791Z,99881.44
2022-08-14T23:41:00.716Z,99880.81
2022-08-14T23:43:31.300Z,99886.50
2022-08-14T23:45:59.055Z,99898.97
2022-08-14T23:48:28.237Z,99895.34
2022-08-14T23:50:55.798Z,99895.34
2022-08-14T23:53:28.538Z,99892.97
2022-08-14T23:56:17.360Z,99895.09
2022-08-14T23:58:49.370Z,99884.31
